sensor_id;sensor_type;location;lat;lon;timestamp;temperature;humidity
18446;DHT22;9352;50.888;4.466;2023-08-17T00:00:57;20.70;99.90
18446;DHT22;9352;50.888;4.466;2023-08-17T00:03:24;20.70;99.90
18446;DHT22;9352;50.888;4.466;2023-08-17T00:05:51;20.60;99.90
18446;DHT22;9352;50.888;4.466;2023-08-17T00:08:18;20.50;99.90
18446;DHT22;9352;50.888;4.466;2023-08-17T00:10:44;20.50;99.90
18446;DHT22;9352;50.888;4.466;2023-08-17T00:13:12;20.50;99.90
18446;DHT22;9352;50.888;4.466;2023-08-17T00:15:40;20.60;99.90
18446;DHT22;9352;50.888;4.466;2023-08-17T00:18:08;20.60;99.90
18446;DHT22;9352;50.888;4.466;2023-08-17T00:20:35;20.60;99.90
18446;DHT22;9352;50.888;4.466;2023-08-17T00:23:02;20.50;99.90
18446;DHT22;9352;50.888;4.466;2023-08-17T00:25:29;20.40;99.90
18446;DHT22;9352;50.888;4.466;2023-08-17T00:27:56;20.40;99.90
18446;DHT22;9352;50.888;4.466;2023-08-17T00:30:23;20.30;99.90
18446;DHT22;9352;50.888;4.466;2023-08-17T00:32:50;20.30;99.90
18446;DHT22;9352;50.888;4.466;2023-08-17T00:35:18;20.30;99.90
18446;DHT22;9352;50.888;4.466;2023-08-17T00:37:45;20.40;99.90
18446;DHT22;9352;50.888;4.466;2023-08-17T00:40:12;20.40;99.90
18446;DHT22;9352;50.888;4.466;2023-08-17T00:42:39;20.40;99.90
18446;DHT22;9352;50.888;4.466;2023-08-17T00:45:06;20.40;99.90
18446;DHT22;9352;50.888;4.466;2023-08-17T00:47:33;20.50;99.90
18446;DHT22;9352;50.888;4.466;2023-08-17T00:50:01;20.40;99.90
18446;DHT22;9352;50.888;4.466;2023-08-17T00:52:30;20.40;99.90
18446;DHT22;9352;50.888;4.466;2023-08-17T00:55:00;20.30;99.90
18446;DHT22;9352;50.888;4.466;2023-08-17T00:57:29;20.20;99.90
18446;DHT22;9352;50.888;4.466;2023-08-17T00:59:56;20.20;99.90
18446;DHT22;9352;50.888;4.466;2023-08-17T01:02:24;20.10;99.90
18446;DHT22;9352;50.888;4.466;2023-08-17T01:04:52;20.00;99.90
18446;DHT22;9352;50.888;4.466;2023-08-17T01:07:20;19.90;99.90
18446;DHT22;9352;50.888;4.466;2023-08-17T01:09:49;19.80;99.90
18446;DHT22;9352;50.888;4.466;2023-08-17T01:12:22;19.80;99.90
18446;DHT22;9352;50.888;4.466;2023-08-17T01:14:59;19.80;99.90
18446;DHT22;9352;50.888;4.466;2023-08-17T01:17:30;19.70;99.90
18446;DHT22;9352;50.888;4.466;2023-08-17T01:20:00;19.70;99.90
18446;DHT22;9352;50.888;4.466;2023-08-17T01:22:30;19.70;99.90
18446;DHT22;9352;50.888;4.466;2023-08-17T01:25:00;19.70;99.90
18446;DHT22;9352;50.888;4.466;2023-08-17T01:27:37;19.70;99.90
18446;DHT22;9352;50.888;4.466;2023-08-17T01:30:05;19.70;99.90
18446;DHT22;9352;50.888;4.466;2023-08-17T01:32:37;19.70;99.90
18446;DHT22;9352;50.888;4.466;2023-08-17T01:35:11;19.70;99.90
18446;DHT22;9352;50.888;4.466;2023-08-17T01:37:42;19.70;99.90
18446;DHT22;9352;50.888;4.466;2023-08-17T01:40:12;19.70;99.90
18446;DHT22;9352;50.888;4.466;2023-08-17T01:42:41;19.80;99.90
18446;DHT22;9352;50.888;4.466;2023-08-17T01:45:09;19.80;99.90
18446;DHT22;9352;50.888;4.466;2023-08-17T01:47:36;19.70;99.90
18446;DHT22;9352;50.888;4.466;2023-08-17T01:50:03;19.70;99.90
18446;DHT22;9352;50.888;4.466;2023-08-17T01:52:30;19.70;99.90
18446;DHT22;9352;50.888;4.466;2023-08-17T01:54:57;19.70;99.90
18446;DHT22;9352;50.888;4.466;2023-08-17T01:57:26;19.70;99.90
18446;DHT22;9352;50.888;4.466;2023-08-17T01:59:52;19.70;99.90
18446;DHT22;9352;50.888;4.466;2023-08-17T02:02:19;19.70;99.90
18446;DHT22;9352;50.888;4.466;2023-08-17T02:04:47;19.70;99.90
18446;DHT22;9352;50.888;4.466;2023-08-17T02:07:14;19.60;99.90
18446;DHT22;9352;50.888;4.466;2023-08-17T02:09:41;19.60;99.90
18446;DHT22;9352;50.888;4.466;2023-08-17T02:12:07;19.60;99.90
18446;DHT22;9352;50.888;4.466;2023-08-17T02:14:36;19.60;99.90
18446;DHT22;9352;50.888;4.466;2023-08-17T02:17:03;19.70;99.90
18446;DHT22;9352;50.888;4.466;2023-08-17T02:19:31;19.70;99.90
18446;DHT22;9352;50.888;4.466;2023-08-17T02:21:58;19.80;99.90
18446;DHT22;9352;50.888;4.466;2023-08-17T02:24:25;19.80;99.90
18446;DHT22;9352;50.888;4.466;2023-08-17T02:26:52;19.80;99.90
18446;DHT22;9352;50.888;4.466;2023-08-17T02:29:19;19.80;99.90
18446;DHT22;9352;50.888;4.466;2023-08-17T02:31:47;19.80;99.90
18446;DHT22;9352;50.888;4.466;2023-08-17T02:34:14;19.80;99.90
18446;DHT22;9352;50.888;4.466;2023-08-17T02:36:41;19.70;99.90
18446;DHT22;9352;50.888;4.466;2023-08-17T02:39:08;19.70;99.90
18446;DHT22;9352;50.888;4.466;2023-08-17T02:41:35;19.70;99.90
18446;DHT22;9352;50.888;4.466;2023-08-17T02:44:02;19.70;99.90
18446;DHT22;9352;50.888;4.466;2023-08-17T02:46:29;19.70;99.90
18446;DHT22;9352;50.888;4.466;2023-08-17T02:48:57;19.60;99.90
18446;DHT22;9352;50.888;4.466;2023-08-17T02:51:24;19.70;99.90
18446;DHT22;9352;50.888;4.466;2023-08-17T02:53:51;19.70;99.90
18446;DHT22;9352;50.888;4.466;2023-08-17T02:56:18;19.70;99.90
18446;DHT22;9352;50.888;4.466;2023-08-17T02:58:45;19.60;99.90
18446;DHT22;9352;50.888;4.466;2023-08-17T03:01:13;19.60;99.90
18446;DHT22;9352;50.888;4.466;2023-08-17T03:03:40;19.60;99.90
18446;DHT22;9352;50.888;4.466;2023-08-17T03:06:09;19.60;99.90
18446;DHT22;9352;50.888;4.466;2023-08-17T03:08:36;19.50;99.90
18446;DHT22;9352;50.888;4.466;2023-08-17T03:11:03;19.50;99.90
18446;DHT22;9352;50.888;4.466;2023-08-17T03:13:32;19.50;99.90
18446;DHT22;9352;50.888;4.466;2023-08-17T03:16:02;19.50;99.90
18446;DHT22;9352;50.888;4.466;2023-08-17T03:18:29;19.50;99.90
18446;DHT22;9352;50.888;4.466;2023-08-17T03:20:56;19.50;99.90
18446;DHT22;9352;50.888;4.466;2023-08-17T03:23:24;19.50;99.90
18446;DHT22;9352;50.888;4.466;2023-08-17T03:25:51;19.40;99.90
18446;DHT22;9352;50.888;4.466;2023-08-17T03:28:18;19.40;99.90
18446;DHT22;9352;50.888;4.466;2023-08-17T03:30:45;19.40;99.90
18446;DHT22;9352;50.888;4.466;2023-08-17T03:33:12;19.40;99.90
18446;DHT22;9352;50.888;4.466;2023-08-17T03:35:39;19.40;99.90
18446;DHT22;9352;50.888;4.466;2023-08-17T03:38:06;19.30;99.90
18446;DHT22;9352;50.888;4.466;2023-08-17T03:40:34;19.30;99.90
18446;DHT22;9352;50.888;4.466;2023-08-17T03:43:01;19.20;99.90
18446;DHT22;9352;50.888;4.466;2023-08-17T03:45:29;19.20;99.90
18446;DHT22;9352;50.888;4.466;2023-08-17T03:47:56;19.10;99.90
18446;DHT22;9352;50.888;4.466;2023-08-17T03:50:25;19.00;99.90
18446;DHT22;9352;50.888;4.466;2023-08-17T03:52:52;19.00;99.90
18446;DHT22;9352;50.888;4.466;2023-08-17T03:55:19;18.90;99.90
18446;DHT22;9352;50.888;4.466;2023-08-17T03:57:47;18.90;99.90
18446;DHT22;9352;50.888;4.466;2023-08-17T04:00:14;18.90;99.90
18446;DHT22;9352;50.888;4.466;2023-08-17T04:02:41;18.90;99.90
18446;DHT22;9352;50.888;4.466;2023-08-17T04:05:08;18.80;99.90
18446;DHT22;9352;50.888;4.466;2023-08-17T04:07:36;18.80;99.90
18446;DHT22;9352;50.888;4.466;2023-08-17T04:10:05;18.80;99.90
18446;DHT22;9352;50.888;4.466;2023-08-17T04:12:32;18.70;99.90
18446;DHT22;9352;50.888;4.466;2023-08-17T04:15:01;18.70;99.90
18446;DHT22;9352;50.888;4.466;2023-08-17T04:17:28;18.60;99.90
18446;DHT22;9352;50.888;4.466;2023-08-17T04:19:55;18.60;99.90
18446;DHT22;9352;50.888;4.466;2023-08-17T04:22:21;18.70;99.90
18446;DHT22;9352;50.888;4.466;2023-08-17T04:24:48;18.70;99.90
18446;DHT22;9352;50.888;4.466;2023-08-17T04:27:15;18.70;99.90
18446;DHT22;9352;50.888;4.466;2023-08-17T04:29:44;18.70;99.90
18446;DHT22;9352;50.888;4.466;2023-08-17T04:32:15;18.60;99.90
18446;DHT22;9352;50.888;4.466;2023-08-17T04:34:43;18.50;99.90
18446;DHT22;9352;50.888;4.466;2023-08-17T04:37:10;18.50;99.90
18446;DHT22;9352;50.888;4.466;2023-08-17T04:39:37;18.50;99.90
18446;DHT22;9352;50.888;4.466;2023-08-17T04:42:04;18.50;99.90
18446;DHT22;9352;50.888;4.466;2023-08-17T04:44:31;18.60;99.90
18446;DHT22;9352;50.888;4.466;2023-08-17T04:46:58;18.70;99.90
18446;DHT22;9352;50.888;4.466;2023-08-17T04:49:26;18.70;99.90
18446;DHT22;9352;50.888;4.466;2023-08-17T04:51:53;18.70;99.90
18446;DHT22;9352;50.888;4.466;2023-08-17T04:54:20;18.70;99.90
18446;DHT22;9352;50.888;4.466;2023-08-17T04:56:47;18.70;99.90
18446;DHT22;9352;50.888;4.466;2023-08-17T04:59:13;18.80;99.90
18446;DHT22;9352;50.888;4.466;2023-08-17T05:01:40;18.90;99.90
18446;DHT22;9352;50.888;4.466;2023-08-17T05:04:07;19.00;99.90
18446;DHT22;9352;50.888;4.466;2023-08-17T05:06:35;19.00;99.90
18446;DHT22;9352;50.888;4.466;2023-08-17T05:09:04;19.00;99.90
18446;DHT22;9352;50.888;4.466;2023-08-17T05:11:32;19.00;99.90
18446;DHT22;9352;50.888;4.466;2023-08-17T05:13:59;19.00;99.90
18446;DHT22;9352;50.888;4.466;2023-08-17T05:16:26;19.00;99.90
18446;DHT22;9352;50.888;4.466;2023-08-17T05:18:52;19.00;99.90
18446;DHT22;9352;50.888;4.466;2023-08-17T05:21:19;19.10;99.90
18446;DHT22;9352;50.888;4.466;2023-08-17T05:23:47;19.10;99.90
18446;DHT22;9352;50.888;4.466;2023-08-17T05:26:14;19.10;99.90
18446;DHT22;9352;50.888;4.466;2023-08-17T05:28:41;19.10;99.90
18446;DHT22;9352;50.888;4.466;2023-08-17T05:31:10;19.10;99.90
18446;DHT22;9352;50.888;4.466;2023-08-17T05:33:37;19.10;99.90
18446;DHT22;9352;50.888;4.466;2023-08-17T05:36:06;19.20;99.90
18446;DHT22;9352;50.888;4.466;2023-08-17T05:38:33;19.20;99.90
18446;DHT22;9352;50.888;4.466;2023-08-17T05:41:01;19.20;99.90
18446;DHT22;9352;50.888;4.466;2023-08-17T05:43:28;19.20;99.90
18446;DHT22;9352;50.888;4.466;2023-08-17T05:45:57;19.30;99.90
18446;DHT22;9352;50.888;4.466;2023-08-17T05:48:24;19.20;99.90
18446;DHT22;9352;50.888;4.466;2023-08-17T05:50:51;19.30;99.90
18446;DHT22;9352;50.888;4.466;2023-08-17T05:53:18;19.30;99.90
18446;DHT22;9352;50.888;4.466;2023-08-17T05:55:45;19.30;99.90
18446;DHT22;9352;50.888;4.466;2023-08-17T05:58:13;19.40;99.90
18446;DHT22;9352;50.888;4.466;2023-08-17T06:00:40;19.40;99.90
18446;DHT22;9352;50.888;4.466;2023-08-17T06:03:07;19.40;99.90
18446;DHT22;9352;50.888;4.466;2023-08-17T06:05:34;19.40;99.90
18446;DHT22;9352;50.888;4.466;2023-08-17T06:08:01;19.50;99.90
18446;DHT22;9352;50.888;4.466;2023-08-17T06:10:28;19.60;99.90
18446;DHT22;9352;50.888;4.466;2023-08-17T06:12:55;19.70;99.90
18446;DHT22;9352;50.888;4.466;2023-08-17T06:15:24;19.80;99.90
18446;DHT22;9352;50.888;4.466;2023-08-17T06:17:51;19.80;99.90
18446;DHT22;9352;50.888;4.466;2023-08-17T06:20:18;19.80;99.90
18446;DHT22;9352;50.888;4.466;2023-08-17T06:22:47;19.80;99.90
18446;DHT22;9352;50.888;4.466;2023-08-17T06:25:15;19.80;99.90
18446;DHT22;9352;50.888;4.466;2023-08-17T06:27:42;19.80;99.90
18446;DHT22;9352;50.888;4.466;2023-08-17T06:30:10;19.80;99.90
18446;DHT22;9352;50.888;4.466;2023-08-17T06:32:39;19.80;99.90
18446;DHT22;9352;50.888;4.466;2023-08-17T06:35:07;19.80;99.90
18446;DHT22;9352;50.888;4.466;2023-08-17T06:37:34;19.80;99.90
18446;DHT22;9352;50.888;4.466;2023-08-17T06:40:01;19.80;99.90
18446;DHT22;9352;50.888;4.466;2023-08-17T06:42:28;19.80;99.90
18446;DHT22;9352;50.888;4.466;2023-08-17T06:44:55;19.60;99.90
18446;DHT22;9352;50.888;4.466;2023-08-17T06:47:22;19.60;99.90
18446;DHT22;9352;50.888;4.466;2023-08-17T06:49:50;19.70;99.90
18446;DHT22;9352;50.888;4.466;2023-08-17T06:52:17;19.60;99.90
18446;DHT22;9352;50.888;4.466;2023-08-17T06:54:44;19.60;99.90
18446;DHT22;9352;50.888;4.466;2023-08-17T06:57:11;19.60;99.90
18446;DHT22;9352;50.888;4.466;2023-08-17T06:59:38;19.60;99.90
18446;DHT22;9352;50.888;4.466;2023-08-17T07:02:05;19.70;99.90
18446;DHT22;9352;50.888;4.466;2023-08-17T07:04:32;19.70;99.90
18446;DHT22;9352;50.888;4.466;2023-08-17T07:07:00;19.70;99.90
18446;DHT22;9352;50.888;4.466;2023-08-17T07:09:27;19.60;99.90
18446;DHT22;9352;50.888;4.466;2023-08-17T07:11:54;19.50;99.90
18446;DHT22;9352;50.888;4.466;2023-08-17T07:14:21;19.60;99.90
18446;DHT22;9352;50.888;4.466;2023-08-17T07:16:48;19.70;99.90
18446;DHT22;9352;50.888;4.466;2023-08-17T07:19:15;19.80;99.90
18446;DHT22;9352;50.888;4.466;2023-08-17T07:21:42;20.00;99.90
18446;DHT22;9352;50.888;4.466;2023-08-17T07:24:14;20.00;99.90
18446;DHT22;9352;50.888;4.466;2023-08-17T07:26:42;20.10;99.90
18446;DHT22;9352;50.888;4.466;2023-08-17T07:29:09;20.10;99.90
18446;DHT22;9352;50.888;4.466;2023-08-17T07:31:37;20.00;99.90
18446;DHT22;9352;50.888;4.466;2023-08-17T07:34:04;20.10;99.90
18446;DHT22;9352;50.888;4.466;2023-08-17T07:36:31;20.00;99.90
18446;DHT22;9352;50.888;4.466;2023-08-17T07:38:58;20.00;99.90
18446;DHT22;9352;50.888;4.466;2023-08-17T07:41:26;19.90;99.90
18446;DHT22;9352;50.888;4.466;2023-08-17T07:43:53;20.10;99.90
18446;DHT22;9352;50.888;4.466;2023-08-17T07:46:20;20.30;99.90
18446;DHT22;9352;50.888;4.466;2023-08-17T07:48:47;20.40;99.90
18446;DHT22;9352;50.888;4.466;2023-08-17T07:51:14;20.50;99.90
18446;DHT22;9352;50.888;4.466;2023-08-17T07:53:41;20.50;99.90
18446;DHT22;9352;50.888;4.466;2023-08-17T07:56:08;20.50;99.90
18446;DHT22;9352;50.888;4.466;2023-08-17T07:58:36;20.50;99.90
18446;DHT22;9352;50.888;4.466;2023-08-17T08:01:03;20.60;99.90
18446;DHT22;9352;50.888;4.466;2023-08-17T08:03:31;20.50;99.90
18446;DHT22;9352;50.888;4.466;2023-08-17T08:05:58;20.40;99.90
18446;DHT22;9352;50.888;4.466;2023-08-17T08:08:24;20.40;99.90
18446;DHT22;9352;50.888;4.466;2023-08-17T08:10:53;20.40;99.90
18446;DHT22;9352;50.888;4.466;2023-08-17T08:13:20;20.50;99.90
18446;DHT22;9352;50.888;4.466;2023-08-17T08:15:48;20.50;99.90
18446;DHT22;9352;50.888;4.466;2023-08-17T08:18:15;20.60;99.90
18446;DHT22;9352;50.888;4.466;2023-08-17T08:20:42;20.50;99.90
18446;DHT22;9352;50.888;4.466;2023-08-17T08:23:09;20.50;99.90
18446;DHT22;9352;50.888;4.466;2023-08-17T08:25:36;20.20;99.90
18446;DHT22;9352;50.888;4.466;2023-08-17T08:28:03;20.00;99.90
18446;DHT22;9352;50.888;4.466;2023-08-17T08:30:30;20.00;99.90
18446;DHT22;9352;50.888;4.466;2023-08-17T08:32:58;20.20;99.90
18446;DHT22;9352;50.888;4.466;2023-08-17T08:35:25;20.20;99.90
18446;DHT22;9352;50.888;4.466;2023-08-17T08:37:54;20.40;99.90
18446;DHT22;9352;50.888;4.466;2023-08-17T08:40:29;20.50;99.90
18446;DHT22;9352;50.888;4.466;2023-08-17T08:42:56;20.70;99.90
18446;DHT22;9352;50.888;4.466;2023-08-17T08:45:23;20.80;99.90
18446;DHT22;9352;50.888;4.466;2023-08-17T08:47:52;21.00;99.90
18446;DHT22;9352;50.888;4.466;2023-08-17T08:50:21;21.10;99.90
18446;DHT22;9352;50.888;4.466;2023-08-17T08:52:53;21.40;99.90
18446;DHT22;9352;50.888;4.466;2023-08-17T08:55:24;21.60;99.90
18446;DHT22;9352;50.888;4.466;2023-08-17T08:57:53;21.80;99.90
18446;DHT22;9352;50.888;4.466;2023-08-17T09:00:21;21.80;99.90
18446;DHT22;9352;50.888;4.466;2023-08-17T09:02:49;21.70;99.90
18446;DHT22;9352;50.888;4.466;2023-08-17T09:05:16;21.70;99.90
18446;DHT22;9352;50.888;4.466;2023-08-17T09:07:45;21.50;99.90
18446;DHT22;9352;50.888;4.466;2023-08-17T09:10:14;21.60;99.90
18446;DHT22;9352;50.888;4.466;2023-08-17T09:12:42;21.80;99.90
18446;DHT22;9352;50.888;4.466;2023-08-17T09:15:09;22.00;99.90
18446;DHT22;9352;50.888;4.466;2023-08-17T09:17:36;22.30;99.90
18446;DHT22;9352;50.888;4.466;2023-08-17T09:20:04;22.60;99.90
18446;DHT22;9352;50.888;4.466;2023-08-17T09:22:37;22.80;99.90
18446;DHT22;9352;50.888;4.466;2023-08-17T09:25:07;23.00;99.90
18446;DHT22;9352;50.888;4.466;2023-08-17T09:27:34;23.10;99.90
18446;DHT22;9352;50.888;4.466;2023-08-17T09:30:02;23.30;99.90
18446;DHT22;9352;50.888;4.466;2023-08-17T09:32:30;23.20;99.90
18446;DHT22;9352;50.888;4.466;2023-08-17T09:34:57;23.40;99.90
18446;DHT22;9352;50.888;4.466;2023-08-17T09:37:24;23.40;99.90
18446;DHT22;9352;50.888;4.466;2023-08-17T09:39:53;23.40;99.90
18446;DHT22;9352;50.888;4.466;2023-08-17T09:42:22;23.30;99.90
18446;DHT22;9352;50.888;4.466;2023-08-17T09:44:51;23.50;99.90
18446;DHT22;9352;50.888;4.466;2023-08-17T09:47:18;23.30;99.90
18446;DHT22;9352;50.888;4.466;2023-08-17T09:49:48;23.50;99.90
18446;DHT22;9352;50.888;4.466;2023-08-17T09:52:15;23.50;99.90
18446;DHT22;9352;50.888;4.466;2023-08-17T09:54:42;23.60;99.90
18446;DHT22;9352;50.888;4.466;2023-08-17T09:57:10;23.80;99.90
18446;DHT22;9352;50.888;4.466;2023-08-17T09:59:39;24.00;99.90
18446;DHT22;9352;50.888;4.466;2023-08-17T10:02:14;24.10;99.90
18446;DHT22;9352;50.888;4.466;2023-08-17T10:04:44;24.30;99.90
18446;DHT22;9352;50.888;4.466;2023-08-17T10:07:14;24.20;99.90
18446;DHT22;9352;50.888;4.466;2023-08-17T10:09:43;24.30;99.90
18446;DHT22;9352;50.888;4.466;2023-08-17T10:12:15;24.40;99.90
18446;DHT22;9352;50.888;4.466;2023-08-17T10:14:49;24.60;99.90
18446;DHT22;9352;50.888;4.466;2023-08-17T10:17:22;24.60;99.90
18446;DHT22;9352;50.888;4.466;2023-08-17T10:19:54;24.50;99.90
18446;DHT22;9352;50.888;4.466;2023-08-17T10:22:27;24.50;99.90
18446;DHT22;9352;50.888;4.466;2023-08-17T10:24:57;24.60;99.90
18446;DHT22;9352;50.888;4.466;2023-08-17T10:27:25;24.60;99.90
18446;DHT22;9352;50.888;4.466;2023-08-17T10:29:54;24.40;99.90
18446;DHT22;9352;50.888;4.466;2023-08-17T10:32:23;24.10;99.90
18446;DHT22;9352;50.888;4.466;2023-08-17T10:34:51;24.10;99.90
18446;DHT22;9352;50.888;4.466;2023-08-17T10:37:19;24.20;99.90
18446;DHT22;9352;50.888;4.466;2023-08-17T10:39:48;24.30;99.90
18446;DHT22;9352;50.888;4.466;2023-08-17T10:42:15;24.40;99.90
18446;DHT22;9352;50.888;4.466;2023-08-17T10:44:57;24.30;99.90
18446;DHT22;9352;50.888;4.466;2023-08-17T10:47:25;24.60;99.90
18446;DHT22;9352;50.888;4.466;2023-08-17T10:49:56;24.90;99.90
18446;DHT22;9352;50.888;4.466;2023-08-17T10:52:28;25.20;99.90
18446;DHT22;9352;50.888;4.466;2023-08-17T10:54:55;25.40;99.90
18446;DHT22;9352;50.888;4.466;2023-08-17T10:57:28;25.40;99.90
18446;DHT22;9352;50.888;4.466;2023-08-17T11:00:23;25.60;99.90
18446;DHT22;9352;50.888;4.466;2023-08-17T11:02:53;25.40;99.90
18446;DHT22;9352;50.888;4.466;2023-08-17T11:05:37;25.10;99.90
18446;DHT22;9352;50.888;4.466;2023-08-17T11:08:05;25.00;99.90
18446;DHT22;9352;50.888;4.466;2023-08-17T11:10:32;25.00;99.90
18446;DHT22;9352;50.888;4.466;2023-08-17T11:12:59;24.90;99.90
18446;DHT22;9352;50.888;4.466;2023-08-17T11:15:38;24.90;99.90
18446;DHT22;9352;50.888;4.466;2023-08-17T11:18:08;24.70;99.90
18446;DHT22;9352;50.888;4.466;2023-08-17T11:20:37;24.60;99.90
18446;DHT22;9352;50.888;4.466;2023-08-17T11:23:05;24.40;99.90
18446;DHT22;9352;50.888;4.466;2023-08-17T11:25:32;24.10;99.90
18446;DHT22;9352;50.888;4.466;2023-08-17T11:28:00;24.00;99.90
18446;DHT22;9352;50.888;4.466;2023-08-17T11:30:27;24.00;99.90
18446;DHT22;9352;50.888;4.466;2023-08-17T11:32:56;23.90;99.90
18446;DHT22;9352;50.888;4.466;2023-08-17T11:35:23;23.80;99.90
18446;DHT22;9352;50.888;4.466;2023-08-17T11:37:50;23.70;99.90
18446;DHT22;9352;50.888;4.466;2023-08-17T11:40:17;23.50;99.90
18446;DHT22;9352;50.888;4.466;2023-08-17T11:42:45;23.50;99.90
18446;DHT22;9352;50.888;4.466;2023-08-17T11:45:12;23.60;99.90
18446;DHT22;9352;50.888;4.466;2023-08-17T11:47:40;23.70;99.90
18446;DHT22;9352;50.888;4.466;2023-08-17T11:50:10;23.70;99.90
18446;DHT22;9352;50.888;4.466;2023-08-17T11:52:38;23.30;99.90
18446;DHT22;9352;50.888;4.466;2023-08-17T11:55:06;23.30;99.90
18446;DHT22;9352;50.888;4.466;2023-08-17T11:57:34;22.90;99.90
18446;DHT22;9352;50.888;4.466;2023-08-17T12:00:03;23.20;99.90
18446;DHT22;9352;50.888;4.466;2023-08-17T12:02:32;23.40;99.90
18446;DHT22;9352;50.888;4.466;2023-08-17T12:05:03;23.50;99.90
18446;DHT22;9352;50.888;4.466;2023-08-17T12:07:33;23.40;99.90
18446;DHT22;9352;50.888;4.466;2023-08-17T12:10:02;23.40;99.90
18446;DHT22;9352;50.888;4.466;2023-08-17T12:12:29;23.30;99.90
18446;DHT22;9352;50.888;4.466;2023-08-17T12:14:57;23.30;99.90
18446;DHT22;9352;50.888;4.466;2023-08-17T12:17:24;23.20;99.90
18446;DHT22;9352;50.888;4.466;2023-08-17T12:19:54;23.20;99.90
18446;DHT22;9352;50.888;4.466;2023-08-17T12:22:24;23.20;99.90
18446;DHT22;9352;50.888;4.466;2023-08-17T12:24:53;23.30;99.90
18446;DHT22;9352;50.888;4.466;2023-08-17T12:27:22;23.20;99.90
18446;DHT22;9352;50.888;4.466;2023-08-17T12:29:51;23.30;99.90
18446;DHT22;9352;50.888;4.466;2023-08-17T12:32:19;23.20;99.90
18446;DHT22;9352;50.888;4.466;2023-08-17T12:34:46;23.20;99.90
18446;DHT22;9352;50.888;4.466;2023-08-17T12:37:18;23.10;99.90
18446;DHT22;9352;50.888;4.466;2023-08-17T12:39:45;23.10;99.90
18446;DHT22;9352;50.888;4.466;2023-08-17T12:42:14;23.00;99.90
18446;DHT22;9352;50.888;4.466;2023-08-17T12:44:42;23.10;99.90
18446;DHT22;9352;50.888;4.466;2023-08-17T12:47:09;23.20;99.90
18446;DHT22;9352;50.888;4.466;2023-08-17T12:49:36;23.20;99.90
18446;DHT22;9352;50.888;4.466;2023-08-17T12:52:03;23.30;99.90
18446;DHT22;9352;50.888;4.466;2023-08-17T12:54:30;23.40;99.90
18446;DHT22;9352;50.888;4.466;2023-08-17T12:56:57;23.20;99.90
18446;DHT22;9352;50.888;4.466;2023-08-17T12:59:25;23.30;99.90
18446;DHT22;9352;50.888;4.466;2023-08-17T13:01:52;23.20;99.90
18446;DHT22;9352;50.888;4.466;2023-08-17T13:04:19;23.30;99.90
18446;DHT22;9352;50.888;4.466;2023-08-17T13:06:46;23.40;99.90
18446;DHT22;9352;50.888;4.466;2023-08-17T13:09:13;23.50;99.90
18446;DHT22;9352;50.888;4.466;2023-08-17T13:11:41;23.40;99.90
18446;DHT22;9352;50.888;4.466;2023-08-17T13:14:08;23.50;99.90
18446;DHT22;9352;50.888;4.466;2023-08-17T13:16:36;23.70;99.90
18446;DHT22;9352;50.888;4.466;2023-08-17T13:19:03;23.80;99.90
18446;DHT22;9352;50.888;4.466;2023-08-17T13:21:30;23.80;99.90
18446;DHT22;9352;50.888;4.466;2023-08-17T13:23:57;23.90;99.90
18446;DHT22;9352;50.888;4.466;2023-08-17T13:26:24;24.00;99.90
18446;DHT22;9352;50.888;4.466;2023-08-17T13:28:51;23.90;99.90
18446;DHT22;9352;50.888;4.466;2023-08-17T13:31:18;23.90;99.90
18446;DHT22;9352;50.888;4.466;2023-08-17T13:33:46;23.90;99.90
18446;DHT22;9352;50.888;4.466;2023-08-17T13:36:13;23.90;99.90
18446;DHT22;9352;50.888;4.466;2023-08-17T13:38:40;23.90;99.90
18446;DHT22;9352;50.888;4.466;2023-08-17T13:41:07;23.90;99.90
18446;DHT22;9352;50.888;4.466;2023-08-17T13:43:34;23.90;99.90
18446;DHT22;9352;50.888;4.466;2023-08-17T13:46:01;24.00;99.90
18446;DHT22;9352;50.888;4.466;2023-08-17T13:48:28;24.10;99.90
18446;DHT22;9352;50.888;4.466;2023-08-17T13:50:56;24.30;99.90
18446;DHT22;9352;50.888;4.466;2023-08-17T13:53:23;24.40;99.90
18446;DHT22;9352;50.888;4.466;2023-08-17T13:55:50;24.50;99.90
18446;DHT22;9352;50.888;4.466;2023-08-17T13:58:17;24.50;99.90
18446;DHT22;9352;50.888;4.466;2023-08-17T14:00:44;24.50;99.90
18446;DHT22;9352;50.888;4.466;2023-08-17T14:03:11;24.40;99.90
18446;DHT22;9352;50.888;4.466;2023-08-17T14:05:38;24.30;99.90
18446;DHT22;9352;50.888;4.466;2023-08-17T14:08:06;24.10;99.90
18446;DHT22;9352;50.888;4.466;2023-08-17T14:10:36;24.00;99.90
18446;DHT22;9352;50.888;4.466;2023-08-17T14:13:03;23.90;99.90
18446;DHT22;9352;50.888;4.466;2023-08-17T14:15:30;23.80;99.90
18446;DHT22;9352;50.888;4.466;2023-08-17T14:18:00;23.80;99.90
18446;DHT22;9352;50.888;4.466;2023-08-17T14:20:27;23.60;99.90
18446;DHT22;9352;50.888;4.466;2023-08-17T14:22:54;23.50;99.90
18446;DHT22;9352;50.888;4.466;2023-08-17T14:25:22;23.60;99.90
18446;DHT22;9352;50.888;4.466;2023-08-17T14:27:49;23.60;99.90
18446;DHT22;9352;50.888;4.466;2023-08-17T14:30:16;23.70;99.90
18446;DHT22;9352;50.888;4.466;2023-08-17T14:32:43;23.50;99.90
18446;DHT22;9352;50.888;4.466;2023-08-17T14:35:10;23.40;99.90
18446;DHT22;9352;50.888;4.466;2023-08-17T14:37:36;23.30;99.90
18446;DHT22;9352;50.888;4.466;2023-08-17T14:40:04;23.20;99.90
18446;DHT22;9352;50.888;4.466;2023-08-17T14:42:33;23.10;99.90
18446;DHT22;9352;50.888;4.466;2023-08-17T14:44:59;23.10;99.90
18446;DHT22;9352;50.888;4.466;2023-08-17T14:47:26;23.20;99.90
18446;DHT22;9352;50.888;4.466;2023-08-17T14:49:53;23.40;99.90
18446;DHT22;9352;50.888;4.466;2023-08-17T14:52:21;23.60;99.90
18446;DHT22;9352;50.888;4.466;2023-08-17T14:54:48;23.70;99.90
18446;DHT22;9352;50.888;4.466;2023-08-17T14:57:15;23.70;99.90
18446;DHT22;9352;50.888;4.466;2023-08-17T14:59:43;23.80;99.90
18446;DHT22;9352;50.888;4.466;2023-08-17T15:02:10;23.70;99.90
18446;DHT22;9352;50.888;4.466;2023-08-17T15:04:39;23.60;99.90
18446;DHT22;9352;50.888;4.466;2023-08-17T15:07:06;23.50;99.90
18446;DHT22;9352;50.888;4.466;2023-08-17T15:09:36;23.40;99.90
18446;DHT22;9352;50.888;4.466;2023-08-17T15:12:03;23.40;99.90
18446;DHT22;9352;50.888;4.466;2023-08-17T15:14:30;23.40;99.90
18446;DHT22;9352;50.888;4.466;2023-08-17T15:16:59;23.50;99.90
18446;DHT22;9352;50.888;4.466;2023-08-17T15:19:26;23.60;99.90
18446;DHT22;9352;50.888;4.466;2023-08-17T15:21:53;23.60;99.90
18446;DHT22;9352;50.888;4.466;2023-08-17T15:24:19;23.60;99.90
18446;DHT22;9352;50.888;4.466;2023-08-17T15:26:46;23.60;99.90
18446;DHT22;9352;50.888;4.466;2023-08-17T15:29:13;23.80;99.90
18446;DHT22;9352;50.888;4.466;2023-08-17T15:31:40;23.90;99.90
18446;DHT22;9352;50.888;4.466;2023-08-17T15:34:09;24.00;99.90
18446;DHT22;9352;50.888;4.466;2023-08-17T15:36:35;24.00;99.90
18446;DHT22;9352;50.888;4.466;2023-08-17T15:39:03;24.00;99.90
18446;DHT22;9352;50.888;4.466;2023-08-17T15:41:30;24.10;99.90
18446;DHT22;9352;50.888;4.466;2023-08-17T15:43:57;24.10;99.90
18446;DHT22;9352;50.888;4.466;2023-08-17T15:46:24;24.10;99.90
18446;DHT22;9352;50.888;4.466;2023-08-17T15:48:51;24.00;99.90